Terminal Aerodrome Forecast
Issued by NWS Wilmington, OH

Current Version | Previous Version | Graphics & Text | Print | Product List | Glossary On
Versions: 1 2 3 4 5 6 7 8 9 10 11 12 13 14 15 16 17 18 19 20 21 22 23 24
598
FTUS41 KILN 191739
TAFCVG
TAF
KCVG 191739Z 1918/2024 21007KT P6SM FEW050 SCT110
     FM200000 VRB03KT P6SM FEW130
     FM200900 VRB02KT 4SM BR FEW250
     FM201100 VRB02KT 2SM BR FEW150
     FM201400 19005KT P6SM FEW040=

USA.gov is the U.S. government's official web portal to all federal, state and local government web resources and services.